Norwich, North Dakota
Current Conditions -  °F | °C
As of 3:54 AM on Saturday 22 Nov 2014 (Local Time) from KMOT Reporting Station
Clear Clear  
Wind Chill: 23°   Ceiling: Unl
Heat Index: 31°   Visibility: 10mi
Dew Point: 26°   Wind: 9mph
Humidity: 82%   Direction: 230°SW
Pressure: 29.57"   Gusts: NA
Location:  48.25°N, 100.99°W
Report Text: KMOT 220954Z AUTO 23008KT 10SM CLR M01/M03 A2957 RMK AO2 SLP026 T10061033
Loading
Personal Weather Stations






























Interactive Weather Map New forecast layout! Learn more

10-Day Weather Forecast

Advertisements
Track Severe Weather on mobile